Time;durP1;ratioP1;P1;durP2;ratioP2;P2;SDS_P1;SDS_P2;PMS_P1;PMS_P2;Temp;Humidity;BMP_temperature;BMP_pressure;BME280_temperature;BME280_humidity;BME280_pressure;Samples;Min_cycle;Max_cycle;Signal;HPM_P1;HPM_P2
2022/02/26 00:01:22;;;;;;;15.88;3.08;;;6.40;90.00;;;;;;4996509;28;20053;-72
2022/02/26 00:03:48;;;;;;;17.00;2.47;;;6.40;89.90;;;;;;4995065;28;20038;-73
2022/02/26 00:06:14;;;;;;;16.23;2.60;;;6.40;89.70;;;;;;5004746;28;20068;-73
2022/02/26 00:08:39;;;;;;;14.77;2.63;;;6.50;89.80;;;;;;5001565;28;20077;-73
2022/02/26 00:11:05;;;;;;;17.25;2.90;;;6.50;89.70;;;;;;5001200;28;20116;-73
2022/02/26 00:13:31;;;;;;;17.08;2.20;;;6.50;89.30;;;;;;4997580;28;20033;-72
2022/02/26 00:15:57;;;;;;;19.10;2.67;;;6.50;89.20;;;;;;4996733;28;20023;-73
2022/02/26 00:18:22;;;;;;;22.52;3.47;;;6.50;89.40;;;;;;5003823;28;20608;-73
2022/02/26 00:20:48;;;;;;;20.85;3.80;;;6.50;89.40;;;;;;4998705;28;20032;-72
2022/02/26 00:23:14;;;;;;;29.17;3.30;;;6.50;89.10;;;;;;4998726;28;20069;-73
2022/02/26 00:25:39;;;;;;;16.02;2.10;;;6.50;88.90;;;;;;4995289;28;20151;-73
2022/02/26 00:28:06;;;;;;;24.95;2.67;;;6.50;88.90;;;;;;5004672;28;20037;-73
2022/02/26 00:30:32;;;;;;;24.23;2.78;;;6.60;89.10;;;;;;5005556;28;20026;-73
2022/02/26 00:32:57;;;;;;;14.27;1.98;;;6.60;89.10;;;;;;4999513;28;20034;-74
2022/02/26 00:35:23;;;;;;;17.65;3.20;;;6.50;88.70;;;;;;4998845;28;20040;-72
2022/02/26 00:37:49;;;;;;;13.48;2.85;;;6.50;88.80;;;;;;4996922;28;20042;-73
2022/02/26 00:40:15;;;;;;;17.02;2.38;;;6.50;89.10;;;;;;5003123;28;20501;-73
2022/02/26 00:42:41;;;;;;;15.93;2.78;;;6.50;89.20;;;;;;4999469;28;20030;-73
2022/02/26 00:45:07;;;;;;;17.48;2.83;;;6.50;89.20;;;;;;4999214;28;20048;-73
2022/02/26 00:47:33;;;;;;;18.70;3.05;;;6.50;89.30;;;;;;4994959;28;20034;-73
2022/02/26 00:49:59;;;;;;;14.77;2.55;;;6.50;89.20;;;;;;5002809;28;20042;-73
2022/02/26 00:52:31;;;;;;;16.70;2.88;;;6.50;88.90;;;;;;5001926;28;20176;-73
2022/02/26 00:55:00;;;;;;;11.18;2.13;;;6.50;88.60;;;;;;5000302;28;20064;-71
2022/02/26 00:57:27;;;;;;;12.05;2.00;;;6.50;88.90;;;;;;4996800;28;20974;-73
2022/02/26 00:59:53;;;;;;;18.60;2.35;;;6.50;89.00;;;;;;4998532;28;20138;-73
2022/02/26 01:02:19;;;;;;;15.77;2.28;;;6.40;88.90;;;;;;5002134;28;20060;-73
2022/02/26 01:04:46;;;;;;;16.30;2.47;;;6.30;89.10;;;;;;4997637;28;20144;-73
2022/02/26 01:07:12;;;;;;;20.92;3.00;;;6.30;89.40;;;;;;4997252;28;20112;-74
2022/02/26 01:09:38;;;;;;;16.48;2.55;;;6.30;89.20;;;;;;4994525;28;20169;-73
2022/02/26 01:12:06;;;;;;;15.60;2.80;;;6.30;89.50;;;;;;5002585;28;20022;-73
2022/02/26 01:14:33;;;;;;;23.58;3.35;;;6.30;89.50;;;;;;4999924;28;20099;-73
2022/02/26 01:17:00;;;;;;;15.05;2.60;;;6.40;89.40;;;;;;4998080;28;20042;-73
2022/02/26 01:19:26;;;;;;;15.45;2.55;;;6.40;89.40;;;;;;4995285;28;20112;-73
2022/02/26 01:21:52;;;;;;;14.48;2.60;;;6.40;89.40;;;;;;4997521;28;20036;-73
2022/02/26 01:24:18;;;;;;;28.88;3.42;;;6.40;89.60;;;;;;4999148;28;20040;-73
2022/02/26 01:26:44;;;;;;;17.08;2.10;;;6.40;89.40;;;;;;4994224;28;20034;-72
2022/02/26 01:29:10;;;;;;;22.40;3.05;;;6.40;89.70;;;;;;4999676;28;20100;-72
2022/02/26 01:31:37;;;;;;;25.00;3.55;;;6.40;89.60;;;;;;4990922;28;20557;-73
2022/02/26 01:34:05;;;;;;;14.80;2.35;;;6.40;89.40;;;;;;4999424;28;20037;-73
2022/02/26 01:36:31;;;;;;;14.13;2.75;;;6.40;89.50;;;;;;4995548;28;20117;-72
2022/02/26 01:38:59;;;;;;;13.38;2.53;;;6.50;89.60;;;;;;4994990;28;20038;-72
2022/02/26 01:41:28;;;;;;;27.30;3.30;;;6.50;89.20;;;;;;4993100;28;20048;-72
2022/02/26 01:43:55;;;;;;;16.73;2.80;;;6.50;89.20;;;;;;4994929;28;20044;-72
2022/02/26 01:46:21;;;;;;;14.18;2.25;;;6.50;88.90;;;;;;4998834;28;20113;-73
2022/02/26 01:48:47;;;;;;;22.45;3.35;;;6.50;88.90;;;;;;4995283;28;20059;-73
2022/02/26 01:51:13;;;;;;;18.90;2.85;;;6.50;89.00;;;;;;4995047;28;20036;-72
2022/02/26 01:53:39;;;;;;;14.57;2.33;;;6.50;89.00;;;;;;4989569;28;20031;-72
2022/02/26 01:56:06;;;;;;;19.90;2.80;;;6.50;88.90;;;;;;4998465;28;20026;-72
2022/02/26 01:58:33;;;;;;;17.95;2.85;;;6.50;89.20;;;;;;4996679;28;20596;-73
2022/02/26 02:00:58;;;;;;;12.10;2.85;;;6.50;89.20;;;;;;4993680;28;20483;-72
2022/02/26 02:03:24;;;;;;;14.40;2.47;;;6.50;89.50;;;;;;4991850;28;20041;-73
2022/02/26 02:05:50;;;;;;;12.48;2.40;;;6.50;89.50;;;;;;4997240;28;20107;-73
2022/02/26 02:08:16;;;;;;;16.42;2.42;;;6.50;89.40;;;;;;4998199;28;20044;-73
2022/02/26 02:10:42;;;;;;;18.38;2.60;;;6.50;89.50;;;;;;4994373;28;20069;-73
2022/02/26 02:13:09;;;;;;;18.10;2.38;;;6.50;89.50;;;;;;4998852;28;20034;-73
2022/02/26 02:15:37;;;;;;;13.73;1.83;;;6.50;89.60;;;;;;4991777;28;20041;-73
2022/02/26 02:18:04;;;;;;;16.77;3.13;;;6.50;89.60;;;;;;4998417;28;20140;-72
2022/02/26 02:20:30;;;;;;;16.60;2.33;;;6.40;89.40;;;;;;4996851;28;20034;-73
2022/02/26 02:22:56;;;;;;;14.23;2.55;;;6.40;89.70;;;;;;4993713;28;20038;-73
2022/02/26 02:25:27;;;;;;;16.45;2.40;;;6.40;89.90;;;;;;4994376;28;20516;-73
2022/02/26 02:27:53;;;;;;;17.00;2.90;;;6.40;90.00;;;;;;5001189;28;20153;-73
2022/02/26 02:30:18;;;;;;;19.38;2.22;;;6.40;90.00;;;;;;5001125;28;20961;-73
2022/02/26 02:32:44;;;;;;;17.08;2.80;;;6.40;90.10;;;;;;4997387;28;20158;-73
2022/02/26 02:35:29;;;;;;;19.83;3.05;;;6.30;90.10;;;;;;4997470;28;20034;-72
2022/02/26 02:37:56;;;;;;;20.50;2.63;;;6.30;90.40;;;;;;4995988;28;20038;-73
2022/02/26 02:40:23;;;;;;;12.95;2.55;;;6.20;90.50;;;;;;5002210;28;20142;-72
2022/02/26 02:42:50;;;;;;;18.73;2.30;;;6.20;90.70;;;;;;4997882;28;20034;-72
2022/02/26 02:45:16;;;;;;;15.80;4.45;;;6.20;90.70;;;;;;4997749;28;20030;-73
2022/02/26 02:47:42;;;;;;;13.98;2.10;;;6.20;90.80;;;;;;4992944;28;20038;-72
2022/02/26 02:50:08;;;;;;;23.08;2.90;;;6.20;91.10;;;;;;5002271;28;20036;-72
2022/02/26 02:52:34;;;;;;;16.65;1.95;;;6.20;91.30;;;;;;4999465;28;20029;-72
2022/02/26 02:55:00;;;;;;;12.88;2.22;;;6.20;91.40;;;;;;4996966;28;20089;-73
2022/02/26 02:57:26;;;;;;;16.20;2.10;;;6.20;91.80;;;;;;4995038;28;20038;-73
2022/02/26 02:59:52;;;;;;;16.83;2.25;;;6.20;91.60;;;;;;4998525;28;20041;-73
2022/02/26 03:02:17;;;;;;;14.35;2.65;;;6.20;91.70;;;;;;5001043;28;20521;-73
2022/02/26 03:04:43;;;;;;;16.95;2.45;;;6.10;91.80;;;;;;4996880;28;20125;-73
2022/02/26 03:07:09;;;;;;;18.63;2.83;;;6.10;92.00;;;;;;4997453;28;20034;-72
2022/02/26 03:09:36;;;;;;;20.73;2.92;;;6.10;92.10;;;;;;4993743;28;20046;-72
2022/02/26 03:12:03;;;;;;;18.05;3.03;;;6.00;92.10;;;;;;5002035;28;20034;-73
2022/02/26 03:14:29;;;;;;;17.15;2.25;;;6.00;92.20;;;;;;5000438;28;20627;-72
2022/02/26 03:16:55;;;;;;;11.30;1.83;;;5.90;92.20;;;;;;4997694;28;20042;-73
2022/02/26 03:19:21;;;;;;;16.05;2.75;;;5.90;92.20;;;;;;4996040;28;20080;-72
2022/02/26 03:21:48;;;;;;;15.70;2.70;;;5.90;92.30;;;;;;5001727;28;20813;-72
2022/02/26 03:24:13;;;;;;;13.27;2.05;;;5.90;92.30;;;;;;5003039;28;20033;-72
2022/02/26 03:26:39;;;;;;;19.52;2.58;;;5.90;92.40;;;;;;4999271;28;20042;-72
2022/02/26 03:29:09;;;;;;;23.45;2.45;;;5.90;92.40;;;;;;4998502;28;20030;-72
2022/02/26 03:31:35;;;;;;;13.07;2.85;;;5.90;92.40;;;;;;4995249;28;20033;-72
2022/02/26 03:34:01;;;;;;;15.52;2.60;;;5.90;92.50;;;;;;4999726;28;20073;-72
2022/02/26 03:36:32;;;;;;;17.38;2.47;;;6.00;92.40;;;;;;4998061;28;20141;-72
2022/02/26 03:38:58;;;;;;;23.13;2.72;;;6.00;92.30;;;;;;4995639;28;20041;-73
2022/02/26 03:41:24;;;;;;;11.02;2.05;;;6.00;92.30;;;;;;4993477;28;20041;-72
2022/02/26 03:43:50;;;;;;;11.75;2.67;;;5.90;92.30;;;;;;4998670;28;20034;-72
2022/02/26 03:46:16;;;;;;;16.17;2.53;;;5.80;92.20;;;;;;5000899;28;20026;-73
2022/02/26 03:48:43;;;;;;;16.77;2.40;;;5.70;92.20;;;;;;4995666;28;20038;-73
2022/02/26 03:51:10;;;;;;;18.77;2.58;;;5.50;92.40;;;;;;4996022;28;20036;-72
2022/02/26 03:53:36;;;;;;;11.60;1.92;;;5.30;92.70;;;;;;4995353;28;20105;-73
2022/02/26 03:56:02;;;;;;;13.23;1.65;;;5.10;93.00;;;;;;5000521;28;20030;-73
2022/02/26 03:58:28;;;;;;;21.67;3.67;;;5.00;93.30;;;;;;5000458;28;20041;-73
2022/02/26 04:00:54;;;;;;;14.85;2.55;;;4.90;93.50;;;;;;4997775;28;20030;-73
2022/02/26 04:03:20;;;;;;;13.48;2.55;;;4.70;93.60;;;;;;4995159;28;20080;-73
2022/02/26 04:05:45;;;;;;;23.20;3.53;;;4.70;93.80;;;;;;5003365;28;20038;-73
2022/02/26 04:08:11;;;;;;;14.50;1.75;;;4.60;94.10;;;;;;5000289;28;20030;-73
2022/02/26 04:10:37;;;;;;;18.52;3.28;;;4.60;94.20;;;;;;4996998;28;20823;-73
2022/02/26 04:13:03;;;;;;;23.02;2.60;;;4.70;94.40;;;;;;4996698;28;20041;-73
2022/02/26 04:15:29;;;;;;;23.20;2.97;;;4.80;94.50;;;;;;4995384;28;20120;-73
2022/02/26 04:17:55;;;;;;;24.80;2.60;;;4.90;94.30;;;;;;4999863;28;20121;-72
2022/02/26 04:20:21;;;;;;;21.85;3.03;;;5.10;94.10;;;;;;4998979;28;20113;-73
2022/02/26 04:22:47;;;;;;;22.30;3.13;;;5.30;94.00;;;;;;4994481;28;20042;-72
2022/02/26 04:25:12;;;;;;;16.02;2.42;;;5.40;93.60;;;;;;4994367;28;20477;-72
2022/02/26 04:27:38;;;;;;;17.08;2.85;;;5.60;93.40;;;;;;5001576;28;20030;-72
2022/02/26 04:30:07;;;;;;;17.17;2.50;;;5.60;93.20;;;;;;4998797;28;20037;-73
2022/02/26 04:32:35;;;;;;;25.60;3.70;;;5.70;93.10;;;;;;4996082;28;20045;-73
2022/02/26 04:35:01;;;;;;;14.80;2.00;;;5.80;93.00;;;;;;4995198;28;20042;-73
2022/02/26 04:37:26;;;;;;;14.32;2.15;;;5.80;92.70;;;;;;4997868;28;20037;-73
2022/02/26 04:39:53;;;;;;;17.80;3.42;;;5.90;92.60;;;;;;4999319;28;20402;-73
2022/02/26 04:42:18;;;;;;;20.55;2.90;;;5.90;92.40;;;;;;4998489;28;20026;-73
2022/02/26 04:44:44;;;;;;;11.77;2.08;;;6.00;92.30;;;;;;4993274;28;20030;-73
2022/02/26 04:47:12;;;;;;;16.02;2.33;;;6.10;92.30;;;;;;4994463;28;20129;-73
2022/02/26 04:49:38;;;;;;;18.80;3.50;;;6.10;92.20;;;;;;5000630;28;20034;-73
2022/02/26 04:52:04;;;;;;;18.90;3.10;;;6.20;92.00;;;;;;4998214;28;20044;-72
2022/02/26 04:54:30;;;;;;;17.10;2.78;;;6.20;91.90;;;;;;4996436;28;20073;-73
2022/02/26 04:56:56;;;;;;;18.50;2.45;;;6.20;91.70;;;;;;4999422;28;20069;-73
2022/02/26 04:59:22;;;;;;;15.93;3.22;;;6.20;91.70;;;;;;4998109;28;20496;-73
2022/02/26 05:01:47;;;;;;;11.40;2.35;;;6.20;91.70;;;;;;4998290;28;20033;-73
2022/02/26 05:04:13;;;;;;;18.27;3.22;;;6.20;91.70;;;;;;4996580;28;20631;-73
2022/02/26 05:06:39;;;;;;;18.17;2.55;;;6.30;91.50;;;;;;4992839;28;20641;-72
2022/02/26 05:09:04;;;;;;;8.70;2.03;;;6.20;91.50;;;;;;4995131;28;20037;-73
2022/02/26 05:11:30;;;;;;;20.65;3.38;;;6.30;91.50;;;;;;4990798;28;20048;-73
2022/02/26 05:13:56;;;;;;;20.73;2.55;;;6.30;91.50;;;;;;4990912;28;20153;-72
2022/02/26 05:16:21;;;;;;;11.95;2.67;;;6.30;91.40;;;;;;4991395;28;20682;-73
2022/02/26 05:18:47;;;;;;;16.30;2.38;;;6.30;91.40;;;;;;4989994;28;20137;-72
2022/02/26 05:21:13;;;;;;;16.25;2.35;;;6.30;91.40;;;;;;4991980;28;20754;-72
2022/02/26 05:23:42;;;;;;;18.27;2.65;;;6.30;91.30;;;;;;4993374;28;20038;-73
2022/02/26 05:26:12;;;;;;;16.23;2.50;;;6.40;91.40;;;;;;4991397;28;20121;-72
2022/02/26 05:28:38;;;;;;;20.42;3.40;;;6.30;91.20;;;;;;4990652;28;20034;-73
2022/02/26 05:31:05;;;;;;;12.90;2.58;;;6.30;91.20;;;;;;4996641;28;20108;-73
2022/02/26 05:33:34;;;;;;;18.70;2.78;;;6.30;91.10;;;;;;4997053;28;20026;-73
2022/02/26 05:36:00;;;;;;;17.42;2.92;;;6.40;91.10;;;;;;4994775;28;20048;-72
2022/02/26 05:38:26;;;;;;;15.30;2.92;;;6.40;91.10;;;;;;4989896;28;20034;-73
2022/02/26 05:40:52;;;;;;;12.38;2.45;;;6.40;91.10;;;;;;4991205;28;20513;-73
2022/02/26 05:43:17;;;;;;;12.52;2.05;;;6.40;91.10;;;;;;4993367;28;20062;-73
2022/02/26 05:45:43;;;;;;;13.02;1.98;;;6.40;91.10;;;;;;4999213;28;20034;-73
2022/02/26 05:48:09;;;;;;;11.88;2.22;;;6.40;91.10;;;;;;4995247;28;20549;-73
2022/02/26 05:50:35;;;;;;;19.52;3.05;;;6.40;91.10;;;;;;4994952;28;20815;-73
2022/02/26 05:53:01;;;;;;;16.63;2.47;;;6.40;91.10;;;;;;4993218;28;20402;-72
2022/02/26 05:55:26;;;;;;;15.25;2.33;;;6.40;91.00;;;;;;4991594;28;20045;-73
2022/02/26 05:57:52;;;;;;;15.60;3.05;;;6.40;91.10;;;;;;4989143;28;20026;-73
2022/02/26 06:00:18;;;;;;;16.58;2.63;;;6.40;90.90;;;;;;4995307;28;20482;-72
2022/02/26 06:02:43;;;;;;;17.77;3.25;;;6.40;91.00;;;;;;4992193;28;20162;-73
2022/02/26 06:05:10;;;;;;;15.13;2.63;;;6.40;91.10;;;;;;4997327;28;20050;-73
2022/02/26 06:07:35;;;;;;;22.30;2.83;;;6.40;91.10;;;;;;5003113;28;20033;-73
2022/02/26 06:10:02;;;;;;;14.93;2.33;;;6.40;91.10;;;;;;4994014;28;20124;-72
2022/02/26 06:12:27;;;;;;;19.92;2.97;;;6.40;91.00;;;;;;4995896;28;20108;-72
2022/02/26 06:14:53;;;;;;;17.50;2.58;;;6.40;90.90;;;;;;4998260;28;20041;-72
2022/02/26 06:17:19;;;;;;;21.52;2.90;;;6.50;91.00;;;;;;4992516;28;20793;-73
2022/02/26 06:19:44;;;;;;;22.55;2.67;;;6.40;90.90;;;;;;4994293;28;20121;-73
2022/02/26 06:22:10;;;;;;;21.13;2.67;;;6.50;90.90;;;;;;5000388;28;20505;-73
2022/02/26 06:24:36;;;;;;;15.77;2.55;;;6.40;90.80;;;;;;4992959;28;20045;-73
2022/02/26 06:27:02;;;;;;;20.30;2.58;;;6.50;90.80;;;;;;4994552;28;20091;-73
2022/02/26 06:29:27;;;;;;;18.67;3.08;;;6.40;90.50;;;;;;4998931;28;20030;-73
2022/02/26 06:31:53;;;;;;;16.60;2.47;;;6.50;90.60;;;;;;4995125;28;20056;-73
2022/02/26 06:34:20;;;;;;;23.35;3.50;;;6.50;90.50;;;;;;5000217;28;20077;-73
2022/02/26 06:36:46;;;;;;;24.35;3.42;;;6.50;90.50;;;;;;4999711;28;20034;-72
2022/02/26 06:39:11;;;;;;;12.57;2.55;;;6.50;90.50;;;;;;4997373;28;20089;-73
2022/02/26 06:41:37;;;;;;;12.73;3.08;;;6.60;90.40;;;;;;4995089;28;20038;-73
2022/02/26 06:44:03;;;;;;;17.17;3.05;;;6.60;90.40;;;;;;4993642;28;20030;-73
2022/02/26 06:46:29;;;;;;;18.70;2.97;;;6.60;90.20;;;;;;4993842;28;20144;-73
2022/02/26 06:48:55;;;;;;;11.77;2.28;;;6.70;90.20;;;;;;4991692;28;20397;-73
2022/02/26 06:51:21;;;;;;;16.73;2.88;;;6.70;90.10;;;;;;4996760;28;20025;-73
2022/02/26 06:53:46;;;;;;;20.30;2.97;;;6.80;90.00;;;;;;4993878;28;20113;-73
2022/02/26 06:56:12;;;;;;;14.60;2.30;;;6.80;90.20;;;;;;4996028;28;20037;-73
2022/02/26 06:58:38;;;;;;;20.05;3.17;;;6.80;89.50;;;;;;4995419;28;20045;-74
2022/02/26 07:01:04;;;;;;;17.75;2.40;;;6.90;89.00;;;;;;4994670;28;20065;-73
2022/02/26 07:03:30;;;;;;;13.02;2.45;;;6.90;88.70;;;;;;4988288;28;20045;-71
2022/02/26 07:05:56;;;;;;;18.60;2.65;;;7.00;88.40;;;;;;4997480;28;20037;-75
2022/02/26 07:08:21;;;;;;;18.42;3.38;;;7.10;88.30;;;;;;4995183;28;20042;-76
2022/02/26 07:10:47;;;;;;;15.73;1.85;;;7.20;87.60;;;;;;4997346;28;20034;-75
2022/02/26 07:13:13;;;;;;;17.58;3.53;;;7.30;86.90;;;;;;5000459;28;20041;-75
2022/02/26 07:15:39;;;;;;;17.55;3.17;;;7.40;85.80;;;;;;4995128;28;20057;-75
2022/02/26 07:18:05;;;;;;;13.60;2.97;;;7.40;85.90;;;;;;4991445;28;20196;-75
2022/02/26 07:20:30;;;;;;;21.17;6.78;;;7.50;85.60;;;;;;4999896;28;20161;-75
2022/02/26 07:22:56;;;;;;;18.35;5.05;;;7.60;85.40;;;;;;5002021;28;20319;-72
2022/02/26 07:25:24;;;;;;;19.25;4.60;;;7.60;85.20;;;;;;4993912;28;20042;-72
2022/02/26 07:27:50;;;;;;;14.65;4.18;;;7.60;84.50;;;;;;4995811;28;20046;-73
2022/02/26 07:30:15;;;;;;;12.27;3.15;;;7.70;84.70;;;;;;4995052;28;20033;-73
2022/02/26 07:32:41;;;;;;;14.57;3.90;;;7.70;84.00;;;;;;4994276;28;20157;-73
2022/02/26 07:35:07;;;;;;;17.67;4.00;;;7.80;84.00;;;;;;4999718;28;20038;-72
2022/02/26 07:37:33;;;;;;;15.15;3.38;;;7.90;83.80;;;;;;4995127;28;20133;-72
2022/02/26 07:39:58;;;;;;;28.65;7.07;;;8.00;83.50;;;;;;4990281;28;20136;-73
2022/02/26 07:42:26;;;;;;;20.58;5.93;;;8.00;83.30;;;;;;4993922;28;20480;-73
2022/02/26 07:44:52;;;;;;;22.40;5.93;;;8.10;83.20;;;;;;4995997;28;20053;-73
2022/02/26 07:47:17;;;;;;;23.45;5.55;;;8.10;82.50;;;;;;4992392;28;20601;-75
2022/02/26 07:49:43;;;;;;;19.08;5.45;;;8.20;82.00;;;;;;4990263;28;20025;-76
2022/02/26 07:52:09;;;;;;;25.80;4.75;;;8.20;81.90;;;;;;4994951;28;20208;-74
2022/02/26 07:54:35;;;;;;;24.70;5.65;;;8.30;81.20;;;;;;4992219;28;20038;-72
2022/02/26 07:57:00;;;;;;;39.08;11.93;;;8.30;81.60;;;;;;4987584;28;20065;-72
2022/02/26 07:59:26;;;;;;;35.70;11.23;;;8.40;81.00;;;;;;4987555;28;20030;-76
2022/02/26 08:01:53;;;;;;;21.00;6.32;;;8.40;80.90;;;;;;4992166;28;20552;-76
2022/02/26 08:04:19;;;;;;;14.90;5.20;;;8.50;80.50;;;;;;4998097;28;20826;-76
2022/02/26 08:06:45;;;;;;;39.85;10.77;;;8.50;80.00;;;;;;4992322;28;20030;-76
2022/02/26 08:09:10;;;;;;;25.73;5.13;;;8.60;80.10;;;;;;4993739;28;20043;-76
2022/02/26 08:11:39;;;;;;;18.88;6.18;;;8.50;78.50;;;;;;4993394;28;20106;-76
2022/02/26 08:14:05;;;;;;;25.88;6.88;;;8.50;79.50;;;;;;4991438;28;20784;-76
2022/02/26 08:16:31;;;;;;;25.02;6.25;;;8.50;80.20;;;;;;5001214;28;20034;-76
2022/02/26 08:18:57;;;;;;;26.63;7.32;;;8.50;79.80;;;;;;4989399;28;20061;-76
2022/02/26 08:21:23;;;;;;;34.72;9.80;;;8.50;79.10;;;;;;5000304;28;20486;-76
2022/02/26 08:23:49;;;;;;;30.20;10.13;;;8.60;79.20;;;;;;4995376;28;20022;-77
2022/02/26 08:26:16;;;;;;;22.55;7.15;;;8.60;79.40;;;;;;5000819;28;20025;-76
2022/02/26 08:28:42;;;;;;;16.83;3.90;;;8.70;79.20;;;;;;4994732;28;20535;-76
2022/02/26 08:31:07;;;;;;;13.32;3.60;;;8.70;77.80;;;;;;4991543;28;20068;-76
2022/02/26 08:33:33;;;;;;;26.95;9.05;;;8.80;78.10;;;;;;4985914;28;20050;-77
2022/02/26 08:35:59;;;;;;;37.78;12.73;;;8.80;77.50;;;;;;4992046;28;20046;-76
2022/02/26 08:38:25;;;;;;;21.77;7.13;;;8.90;77.80;;;;;;4992492;28;20518;-76
2022/02/26 08:40:51;;;;;;;24.10;10.77;;;8.90;77.80;;;;;;4996939;28;20048;-76
2022/02/26 08:43:16;;;;;;;18.63;7.50;;;8.90;77.50;;;;;;4994751;28;20037;-76
2022/02/26 08:45:43;;;;;;;20.73;4.75;;;9.00;78.00;;;;;;4986373;28;20034;-74
2022/02/26 08:48:10;;;;;;;25.90;4.95;;;8.90;77.70;;;;;;4990840;28;20034;-76
2022/02/26 08:50:36;;;;;;;22.23;4.75;;;8.90;77.40;;;;;;4999394;28;20117;-77
2022/02/26 08:53:02;;;;;;;27.60;8.27;;;8.90;77.30;;;;;;4996637;28;20061;-76
2022/02/26 08:55:28;;;;;;;22.58;5.10;;;9.00;77.30;;;;;;4994645;28;20116;-77
2022/02/26 08:57:54;;;;;;;20.60;5.93;;;9.00;76.50;;;;;;4987647;28;20049;-77
2022/02/26 09:00:19;;;;;;;21.50;3.90;;;9.00;76.90;;;;;;4995325;28;20049;-76
2022/02/26 09:02:45;;;;;;;13.30;3.38;;;9.10;76.00;;;;;;4990645;28;20041;-76
2022/02/26 09:05:11;;;;;;;16.98;3.78;;;9.10;76.10;;;;;;4997443;28;20029;-76
2022/02/26 09:07:38;;;;;;;21.83;6.13;;;9.10;76.30;;;;;;4998092;28;20041;-74
2022/02/26 09:10:05;;;;;;;15.63;3.65;;;9.10;76.40;;;;;;4994410;28;20021;-76
2022/02/26 09:12:31;;;;;;;19.05;6.13;;;9.20;76.20;;;;;;4999681;28;20044;-77
2022/02/26 09:14:57;;;;;;;17.63;6.03;;;9.40;75.70;;;;;;4989872;28;20033;-76
2022/02/26 09:17:24;;;;;;;15.68;6.22;;;9.60;75.40;;;;;;4996128;28;20524;-76
2022/02/26 09:19:50;;;;;;;15.88;2.78;;;9.70;74.60;;;;;;4994685;28;20077;-76
2022/02/26 09:22:15;;;;;;;12.18;3.08;;;9.70;74.20;;;;;;4994457;28;20034;-75
2022/02/26 09:24:41;;;;;;;13.02;3.40;;;9.80;73.90;;;;;;4991258;28;20041;-76
2022/02/26 09:27:07;;;;;;;14.30;3.03;;;9.80;73.90;;;;;;4989483;28;20808;-75
2022/02/26 09:29:33;;;;;;;13.45;4.15;;;9.80;73.70;;;;;;4992876;28;20116;-76
2022/02/26 09:31:58;;;;;;;20.08;5.75;;;9.90;73.30;;;;;;4998999;28;20034;-76
2022/02/26 09:34:24;;;;;;;13.48;3.33;;;10.10;73.50;;;;;;4995641;28;20034;-76
2022/02/26 09:36:52;;;;;;;18.80;3.75;;;10.20;73.00;;;;;;4995981;28;20037;-76
2022/02/26 09:39:18;;;;;;;14.25;3.05;;;10.40;72.40;;;;;;4996461;28;20030;-75
2022/02/26 09:41:48;;;;;;;11.13;3.63;;;10.50;72.10;;;;;;4992041;28;20030;-74
2022/02/26 09:44:15;;;;;;;13.93;2.65;;;10.70;71.10;;;;;;5000507;28;20034;-75
2022/02/26 09:46:43;;;;;;;16.98;3.28;;;10.80;70.60;;;;;;4994263;28;20065;-74
2022/02/26 09:49:09;;;;;;;9.45;2.17;;;11.00;69.70;;;;;;4997048;28;20042;-75
2022/02/26 09:51:39;;;;;;;21.60;3.53;;;11.40;69.10;;;;;;5001435;28;20058;-74
2022/02/26 09:54:05;;;;;;;11.23;2.78;;;11.80;68.30;;;;;;4997735;28;20037;-75
2022/02/26 09:56:31;;;;;;;17.58;3.13;;;11.90;66.60;;;;;;4995699;28;20026;-75
2022/02/26 09:58:56;;;;;;;13.85;2.72;;;11.80;66.30;;;;;;4998061;28;20121;-75
2022/02/26 10:01:22;;;;;;;15.90;2.88;;;11.90;66.90;;;;;;5001167;28;20037;-75
2022/02/26 10:03:48;;;;;;;12.02;2.47;;;12.00;65.60;;;;;;4992549;28;20030;-75
2022/02/26 10:06:14;;;;;;;12.60;3.25;;;12.00;65.40;;;;;;4997704;28;20851;-75
2022/02/26 10:08:45;;;;;;;14.25;2.70;;;12.20;65.50;;;;;;4991601;28;20541;-76
2022/02/26 10:11:35;;;;;;;10.20;2.00;;;12.30;65.30;;;;;;5000438;28;20034;-76
2022/02/26 10:14:09;;;;;;;12.90;3.75;;;12.40;63.70;;;;;;4999524;28;20038;-75
2022/02/26 10:16:47;;;;;;;12.43;3.75;;;12.40;63.40;;;;;;4991956;28;20877;-75
2022/02/26 10:19:30;;;;;;;12.77;2.53;;;12.10;63.40;;;;;;4996970;28;20073;-76
2022/02/26 10:22:01;;;;;;;14.27;5.30;;;11.80;64.70;;;;;;5000893;28;20505;-77
2022/02/26 10:24:28;;;;;;;17.58;4.28;;;11.50;65.80;;;;;;4998964;28;20038;-76
2022/02/26 10:26:56;;;;;;;12.52;3.60;;;11.30;65.80;;;;;;4997621;28;20044;-77
2022/02/26 10:29:23;;;;;;;16.63;4.35;;;11.30;66.40;;;;;;4995926;28;20396;-77
2022/02/26 10:31:53;;;;;;;15.65;2.58;;;11.30;66.50;;;;;;5000594;28;20129;-75
2022/02/26 10:34:25;;;;;;;12.20;3.72;;;11.20;66.70;;;;;;4992123;28;20100;-73
2022/02/26 10:37:07;;;;;;;11.90;2.40;;;11.20;67.20;;;;;;5002631;28;20038;-76
2022/02/26 10:39:46;;;;;;;15.52;4.03;;;11.20;67.60;;;;;;4988977;28;20038;-76
2022/02/26 10:42:30;;;;;;;13.65;4.18;;;11.10;67.00;;;;;;4995300;28;20034;-76
2022/02/26 10:45:22;;;;;;;13.70;4.30;;;11.30;66.70;;;;;;4991925;28;20037;-76
2022/02/26 10:47:48;;;;;;;18.23;5.28;;;11.50;66.50;;;;;;4992939;28;20401;-76
2022/02/26 10:50:15;;;;;;;19.48;4.35;;;11.80;65.70;;;;;;4997266;28;20027;-76
2022/02/26 10:52:59;;;;;;;15.73;5.28;;;11.60;64.60;;;;;;4995444;28;20853;-76
2022/02/26 10:55:59;;;;;;;11.13;3.58;;;11.50;65.80;;;;;;4998841;28;20053;-76
2022/02/26 10:58:27;;;;;;;12.00;2.47;;;11.50;66.70;;;;;;4992716;28;20038;-75
2022/02/26 11:01:04;;;;;;;14.73;3.50;;;11.40;66.30;;;;;;4993479;28;20136;-76
2022/02/26 11:03:30;;;;;;;11.35;3.08;;;11.40;67.00;;;;;;4995407;28;20825;-76
2022/02/26 11:05:57;;;;;;;22.77;7.50;;;11.60;66.60;;;;;;5001646;28;20033;-76
2022/02/26 11:08:24;;;;;;;17.48;3.90;;;12.00;65.00;;;;;;4995766;28;20037;-77
2022/02/26 11:10:52;;;;;;;13.85;3.05;;;12.20;64.10;;;;;;4993774;28;20038;-77
2022/02/26 11:13:20;;;;;;;13.38;2.70;;;12.30;63.40;;;;;;4998248;28;20491;-76
2022/02/26 11:15:50;;;;;;;9.82;2.65;;;12.30;61.40;;;;;;5000186;28;20083;-76
2022/02/26 11:18:18;;;;;;;13.57;2.30;;;12.30;62.00;;;;;;4996883;28;20029;-76
2022/02/26 11:20:45;;;;;;;11.63;2.95;;;12.60;62.40;;;;;;4997625;28;20121;-76
2022/02/26 11:23:12;;;;;;;13.10;3.08;;;14.60;58.20;;;;;;4998644;28;20358;-76
2022/02/26 11:25:38;;;;;;;12.60;3.00;;;15.80;53.30;;;;;;4999876;28;20069;-76
2022/02/26 11:28:07;;;;;;;9.07;2.25;;;15.20;53.60;;;;;;4991405;28;20046;-76
2022/02/26 11:30:38;;;;;;;9.57;2.40;;;14.30;54.70;;;;;;4992242;28;20045;-76
2022/02/26 11:33:05;;;;;;;7.15;2.25;;;13.70;56.80;;;;;;5011590;28;20034;-76
2022/02/26 11:35:31;;;;;;;8.35;2.17;;;13.20;58.00;;;;;;4996305;28;20136;-76
2022/02/26 11:38:04;;;;;;;9.25;2.63;;;12.70;58.20;;;;;;4990846;28;20057;-77
2022/02/26 11:40:34;;;;;;;6.65;2.03;;;12.30;60.60;;;;;;4986319;28;20442;-76
2022/02/26 11:43:00;;;;;;;13.35;2.85;;;12.00;61.50;;;;;;4993526;28;20634;-76
2022/02/26 11:45:28;;;;;;;6.25;2.13;;;11.80;62.60;;;;;;4994129;28;20046;-76
2022/02/26 11:47:59;;;;;;;6.65;1.67;;;11.70;62.20;;;;;;4994102;28;20470;-76
2022/02/26 11:50:25;;;;;;;8.38;2.00;;;11.70;62.50;;;;;;4999434;28;20255;-76
2022/02/26 11:53:01;;;;;;;6.35;1.80;;;11.80;61.90;;;;;;5000694;28;20532;-76
2022/02/26 11:55:42;;;;;;;7.28;1.63;;;12.00;61.20;;;;;;4998834;28;20047;-76
2022/02/26 11:58:15;;;;;;;5.18;1.38;;;12.30;60.00;;;;;;4994533;28;20665;-74
2022/02/26 12:00:53;;;;;;;4.93;1.40;;;12.70;57.90;;;;;;4999267;28;20038;-72
2022/02/26 12:03:22;;;;;;;9.75;1.95;;;13.00;57.90;;;;;;4995136;28;20113;-75
2022/02/26 12:05:51;;;;;;;6.75;2.05;;;13.10;57.30;;;;;;4997003;28;20076;-77
2022/02/26 12:08:20;;;;;;;9.95;1.77;;;13.20;57.20;;;;;;4990834;28;20435;-77
2022/02/26 12:10:56;;;;;;;6.30;1.95;;;13.40;57.50;;;;;;4995809;28;20712;-77
2022/02/26 12:13:28;;;;;;;7.55;2.10;;;13.40;57.40;;;;;;4998074;28;20034;-76
2022/02/26 12:16:28;;;;;;;7.35;2.30;;;13.60;58.20;;;;;;4994114;28;20046;-75
2022/02/26 12:19:04;;;;;;;9.90;2.15;;;13.60;57.70;;;;;;4951523;28;20060;-76
2022/02/26 12:21:42;;;;;;;7.00;1.98;;;13.40;58.20;;;;;;4996302;28;20060;-75
2022/02/26 12:24:10;;;;;;;7.80;1.58;;;13.20;57.60;;;;;;4993759;28;20057;-76
2022/02/26 12:26:58;;;;;;;10.77;1.95;;;12.90;58.10;;;;;;4997778;28;20084;-77
2022/02/26 12:29:38;;;;;;;5.50;1.77;;;12.60;58.90;;;;;;4989638;28;20401;-76
2022/02/26 12:32:15;;;;;;;11.48;2.00;;;12.40;59.90;;;;;;4992791;28;20455;-76
2022/02/26 12:34:47;;;;;;;13.30;1.90;;;12.20;60.30;;;;;;4989605;28;20449;-76
2022/02/26 12:37:20;;;;;;;9.05;2.80;;;12.10;60.80;;;;;;4986601;28;20799;-76
2022/02/26 12:39:51;;;;;;;9.73;1.85;;;12.10;60.10;;;;;;4989805;28;20086;-76
2022/02/26 12:42:30;;;;;;;8.23;1.85;;;12.30;59.20;;;;;;4984807;28;20388;-75
2022/02/26 12:44:59;;;;;;;6.35;1.58;;;12.30;59.10;;;;;;4999408;28;20113;-76
2022/02/26 12:47:26;;;;;;;6.85;1.02;;;12.30;59.50;;;;;;4998988;28;20080;-76